TimePST,TemperatureF,Dew PointF,Humidity,Sea Level PressureIn,VisibilityMPH,Wind Direction,Wind SpeedMPH,Gust SpeedMPH,PrecipitationIn,Events,Conditions,WindDirDegrees,DateUTC
12:53 AM,37.0,37.0,100,29.86,0.2,Calm,Calm,-,N/A,Fog,Fog,0,2012-11-17 08:53:00
1:53 AM,37.0,37.0,100,29.85,0.2,NNW,5.8,-,N/A,Fog,Fog,330,2012-11-17 09:53:00
2:44 AM,37.4,37.4,100,29.82,0.2,NW,5.8,-,N/A,Fog,Fog,320,2012-11-17 10:44:00
2:53 AM,37.0,37.0,100,29.83,0.2,NW,5.8,-,N/A,Fog,Fog,310,2012-11-17 10:53:00
3:53 AM,37.0,37.0,100,29.81,0.2,NW,4.6,-,0.00,Fog-Rain,Light Rain,320,2012-11-17 11:53:00
4:10 AM,37.4,37.4,100,29.79,0.2,NW,3.5,-,0.00,Fog,Fog,320,2012-11-17 12:10:00
4:26 AM,37.4,37.4,100,29.78,0.2,Calm,Calm,-,0.00,Fog-Rain,Light Rain,0,2012-11-17 12:26:00
4:53 AM,37.0,37.0,100,29.79,0.2,NNW,3.5,-,0.00,Fog,Fog,330,2012-11-17 12:53:00
5:00 AM,37.4,37.4,100,29.77,0.2,Calm,Calm,-,N/A,Fog,Fog,0,2012-11-17 13:00:00
5:53 AM,36.0,36.0,100,29.76,0.2,NW,5.8,-,N/A,Fog,Fog,320,2012-11-17 13:53:00
6:53 AM,36.0,36.0,100,29.75,0.2,WNW,6.9,-,N/A,Fog,Fog,300,2012-11-17 14:53:00
7:53 AM,36.0,36.0,100,29.74,0.2,NW,5.8,-,N/A,Fog,Fog,320,2012-11-17 15:53:00
8:53 AM,37.0,37.0,100,29.71,0.2,Calm,Calm,-,N/A,Fog,Fog,0,2012-11-17 16:53:00
9:42 AM,37.4,37.4,100,29.67,1.0,NW,6.9,-,N/A,,Overcast,310,2012-11-17 17:42:00
9:49 AM,37.4,37.4,100,29.66,0.8,NW,6.9,-,N/A,,Overcast,320,2012-11-17 17:49:00
9:53 AM,37.9,37.9,100,29.67,0.8,NW,5.8,-,N/A,,Overcast,320,2012-11-17 17:53:00
10:10 AM,39.2,39.2,100,29.66,0.2,NW,5.8,-,N/A,Fog,Fog,310,2012-11-17 18:10:00
10:17 AM,39.2,39.2,100,29.66,0.8,NW,5.8,-,N/A,,Overcast,320,2012-11-17 18:17:00
10:26 AM,39.2,39.2,100,29.65,3.0,NW,5.8,-,N/A,,Scattered Clouds,310,2012-11-17 18:26:00
10:53 AM,41.0,41.0,100,29.64,3.0,WNW,3.5,-,N/A,,Scattered Clouds,300,2012-11-17 18:53:00
11:53 AM,43.0,42.1,97,29.62,4.0,NW,5.8,-,0.00,Rain,Light Rain,320,2012-11-17 19:53:00
12:53 PM,43.0,42.1,97,29.59,4.0,NNW,4.6,-,0.01,Rain,Light Rain,340,2012-11-17 20:53:00
1:53 PM,45.0,44.1,97,29.58,4.0,WNW,6.9,-,0.00,,Overcast,300,2012-11-17 21:53:00
2:53 PM,45.0,45.0,100,29.56,4.0,NW,10.4,-,N/A,,Mostly Cloudy,310,2012-11-17 22:53:00
3:00 PM,44.6,44.6,100,29.56,3.0,NW,10.4,-,N/A,,Mostly Cloudy,320,2012-11-17 23:00:00
3:19 PM,42.8,42.8,100,29.55,0.8,NW,12.7,-,N/A,,Overcast,310,2012-11-17 23:19:00
3:31 PM,42.8,42.8,100,29.56,0.2,NW,12.7,-,N/A,Fog,Fog,310,2012-11-17 23:31:00
3:40 PM,42.8,42.8,100,29.55,0.8,NW,12.7,-,N/A,,Overcast,310,2012-11-17 23:40:00
3:53 PM,41.0,41.0,100,29.56,0.5,NW,10.4,-,N/A,Fog,Fog,320,2012-11-17 23:53:00
4:14 PM,41.0,41.0,100,29.55,1.0,NNW,9.2,-,N/A,,Overcast,340,2012-11-18 00:14:00
4:27 PM,41.0,41.0,100,29.54,0.8,NNE,5.8,-,N/A,,Overcast,20,2012-11-18 00:27:00
4:53 PM,42.1,42.1,100,29.53,1.2,Calm,Calm,-,N/A,,Mostly Cloudy,0,2012-11-18 00:53:00
4:56 PM,42.8,42.8,100,29.52,2.0,Calm,Calm,-,N/A,,Scattered Clouds,0,2012-11-18 00:56:00
5:04 PM,41.0,41.0,100,29.53,1.2,WNW,5.8,-,N/A,,Partly Cloudy,290,2012-11-18 01:04:00
5:13 PM,41.0,41.0,100,29.54,1.0,WNW,11.5,-,N/A,,Mist,290,2012-11-18 01:13:00
5:27 PM,41.0,41.0,100,29.58,0.5,West,29.9,35.7,N/A,Fog,Fog,280,2012-11-18 01:27:00
5:34 PM,39.2,39.2,100,29.59,0.2,West,32.2,41.4,N/A,Fog,Fog,280,2012-11-18 01:34:00
5:40 PM,39.2,39.2,100,29.60,1.0,West,32.2,41.4,N/A,,Overcast,280,2012-11-18 01:40:00
5:48 PM,39.2,39.2,100,29.60,1.5,West,27.6,38.0,0.00,Rain,Light Rain,280,2012-11-18 01:48:00
5:53 PM,39.9,39.9,100,29.62,1.2,West,29.9,38.0,0.00,Rain,Light Rain,280,2012-11-18 01:53:00
6:06 PM,39.2,39.2,100,29.61,1.8,WNW,18.4,38.0,0.00,Rain,Light Rain,300,2012-11-18 02:06:00
6:15 PM,39.2,39.2,100,29.62,2.0,West,20.7,27.6,0.01,Rain,Light Rain,280,2012-11-18 02:15:00
6:26 PM,39.2,39.2,100,29.63,3.0,West,17.3,-,0.01,Rain,Light Rain,270,2012-11-18 02:26:00
6:53 PM,42.1,39.0,89,29.68,5.0,WSW,10.4,-,0.01,Rain,Light Rain,250,2012-11-18 02:53:00
7:10 PM,41.0,39.2,93,29.69,3.0,Variable,4.6,-,0.03,Rain,Rain,0,2012-11-18 03:10:00
7:53 PM,41.0,39.9,96,29.72,5.0,South,9.2,-,0.12,Rain,Light Rain,190,2012-11-18 03:53:00
8:53 PM,39.9,39.0,97,29.75,4.0,South,8.1,-,0.09,Rain,Light Rain,180,2012-11-18 04:53:00
9:53 PM,39.0,37.9,96,29.77,10.0,South,8.1,-,0.07,Rain,Light Rain,170,2012-11-18 05:53:00
10:53 PM,39.9,37.0,89,29.78,10.0,SSE,9.2,-,0.00,,Mostly Cloudy,160,2012-11-18 06:53:00
11:53 PM,39.9,35.1,83,29.82,10.0,WSW,9.2,-,N/A,,Partly Cloudy,240,2012-11-18 07:53:00